sensor_id;sensor_type;location;lat;lon;timestamp;pressure;altitude;pressure_sealevel;temperature;humidity
7668;BME280;3876;42.204;24.686;2023-09-07T00:00:42;99873.13;;;22.12;100.00
7668;BME280;3876;42.204;24.686;2023-09-07T00:03:09;99877.28;;;22.15;100.00
7668;BME280;3876;42.204;24.686;2023-09-07T00:05:35;99866.84;;;22.15;100.00
7668;BME280;3876;42.204;24.686;2023-09-07T00:08:02;99866.63;;;22.18;100.00
7668;BME280;3876;42.204;24.686;2023-09-07T00:10:29;99863.06;;;22.19;100.00
7668;BME280;3876;42.204;24.686;2023-09-07T00:12:56;99872.38;;;22.23;100.00
7668;BME280;3876;42.204;24.686;2023-09-07T00:15:24;99868.81;;;22.11;100.00
7668;BME280;3876;42.204;24.686;2023-09-07T00:17:51;99869.56;;;22.13;100.00
7668;BME280;3876;42.204;24.686;2023-09-07T00:20:18;99872.50;;;22.09;100.00
7668;BME280;3876;42.204;24.686;2023-09-07T00:22:46;99867.25;;;22.09;100.00
7668;BME280;3876;42.204;24.686;2023-09-07T00:25:13;99866.94;;;22.01;100.00
7668;BME280;3876;42.204;24.686;2023-09-07T00:27:40;99869.16;;;21.94;100.00
7668;BME280;3876;42.204;24.686;2023-09-07T00:30:08;99864.97;;;21.91;100.00
7668;BME280;3876;42.204;24.686;2023-09-07T00:32:37;99871.66;;;21.95;100.00
7668;BME280;3876;42.204;24.686;2023-09-07T00:35:05;99866.22;;;21.98;100.00
7668;BME280;3876;42.204;24.686;2023-09-07T00:37:32;99859.34;;;21.97;100.00
7668;BME280;3876;42.204;24.686;2023-09-07T00:39:58;99861.22;;;21.95;100.00
7668;BME280;3876;42.204;24.686;2023-09-07T00:42:25;99864.56;;;21.97;100.00
7668;BME280;3876;42.204;24.686;2023-09-07T00:44:53;99868.13;;;21.96;100.00
7668;BME280;3876;42.204;24.686;2023-09-07T00:47:20;99873.34;;;21.96;100.00
7668;BME280;3876;42.204;24.686;2023-09-07T00:49:49;99865.59;;;21.95;100.00
7668;BME280;3876;42.204;24.686;2023-09-07T00:52:17;99864.13;;;21.78;100.00
7668;BME280;3876;42.204;24.686;2023-09-07T00:54:45;99868.91;;;21.84;100.00
7668;BME280;3876;42.204;24.686;2023-09-07T00:57:11;99872.50;;;21.83;100.00
7668;BME280;3876;42.204;24.686;2023-09-07T00:59:38;99862.06;;;21.83;100.00
7668;BME280;3876;42.204;24.686;2023-09-07T01:02:05;99863.50;;;21.87;100.00
7668;BME280;3876;42.204;24.686;2023-09-07T01:04:32;99861.53;;;21.91;100.00
7668;BME280;3876;42.204;24.686;2023-09-07T01:07:03;99859.47;;;21.96;100.00
7668;BME280;3876;42.204;24.686;2023-09-07T01:09:34;99842.44;;;21.90;100.00
7668;BME280;3876;42.204;24.686;2023-09-07T01:12:03;99855.47;;;22.03;100.00
7668;BME280;3876;42.204;24.686;2023-09-07T01:14:30;99858.72;;;22.07;100.00
7668;BME280;3876;42.204;24.686;2023-09-07T01:16:57;99851.81;;;22.06;100.00
7668;BME280;3876;42.204;24.686;2023-09-07T01:19:24;99846.81;;;22.03;100.00
7668;BME280;3876;42.204;24.686;2023-09-07T01:21:52;99858.09;;;22.03;100.00
7668;BME280;3876;42.204;24.686;2023-09-07T01:24:20;99840.13;;;21.98;100.00
7668;BME280;3876;42.204;24.686;2023-09-07T01:26:48;99855.06;;;22.09;100.00
7668;BME280;3876;42.204;24.686;2023-09-07T01:29:15;99849.69;;;22.11;100.00
7668;BME280;3876;42.204;24.686;2023-09-07T01:31:42;99849.69;;;22.11;100.00
7668;BME280;3876;42.204;24.686;2023-09-07T01:34:09;99852.22;;;22.12;100.00
7668;BME280;3876;42.204;24.686;2023-09-07T01:36:36;99853.06;;;22.13;100.00
7668;BME280;3876;42.204;24.686;2023-09-07T01:39:05;99847.44;;;22.06;100.00
7668;BME280;3876;42.204;24.686;2023-09-07T01:41:32;99854.72;;;22.14;100.00
7668;BME280;3876;42.204;24.686;2023-09-07T01:43:59;99862.53;;;22.14;100.00
7668;BME280;3876;42.204;24.686;2023-09-07T01:46:26;99853.16;;;22.11;100.00
7668;BME280;3876;42.204;24.686;2023-09-07T01:48:53;99858.50;;;22.10;100.00
7668;BME280;3876;42.204;24.686;2023-09-07T01:51:20;99868.09;;;22.09;100.00
7668;BME280;3876;42.204;24.686;2023-09-07T01:53:47;99865.59;;;22.08;100.00
7668;BME280;3876;42.204;24.686;2023-09-07T01:56:16;99863.09;;;22.06;100.00
7668;BME280;3876;42.204;24.686;2023-09-07T01:58:43;99852.25;;;22.00;100.00
7668;BME280;3876;42.204;24.686;2023-09-07T02:01:20;99856.50;;;22.01;100.00
7668;BME280;3876;42.204;24.686;2023-09-07T02:03:47;99868.75;;;22.00;100.00
7668;BME280;3876;42.204;24.686;2023-09-07T02:06:14;99865.41;;;21.98;100.00
7668;BME280;3876;42.204;24.686;2023-09-07T02:08:41;99864.56;;;21.97;100.00
7668;BME280;3876;42.204;24.686;2023-09-07T02:11:08;99866.44;;;21.95;100.00
7668;BME280;3876;42.204;24.686;2023-09-07T02:13:36;99863.13;;;21.93;100.00
7668;BME280;3876;42.204;24.686;2023-09-07T02:16:03;99867.91;;;21.87;100.00
7668;BME280;3876;42.204;24.686;2023-09-07T02:18:31;99861.00;;;21.86;100.00
7668;BME280;3876;42.204;24.686;2023-09-07T02:21:01;99867.28;;;21.83;100.00
7668;BME280;3876;42.204;24.686;2023-09-07T02:23:29;99867.50;;;21.80;100.00
7668;BME280;3876;42.204;24.686;2023-09-07T02:25:55;99865.81;;;21.79;100.00
7668;BME280;3876;42.204;24.686;2023-09-07T02:28:23;99866.94;;;21.75;100.00
7668;BME280;3876;42.204;24.686;2023-09-07T02:30:51;99867.91;;;21.74;100.00
7668;BME280;3876;42.204;24.686;2023-09-07T02:33:18;99864.56;;;21.72;100.00
7668;BME280;3876;42.204;24.686;2023-09-07T02:35:45;99854.97;;;21.60;100.00
7668;BME280;3876;42.204;24.686;2023-09-07T02:38:11;99864.69;;;21.58;100.00
7668;BME280;3876;42.204;24.686;2023-09-07T02:40:41;99862.06;;;21.58;100.00
7668;BME280;3876;42.204;24.686;2023-09-07T02:43:08;99858.72;;;21.56;100.00
7668;BME280;3876;42.204;24.686;2023-09-07T02:45:35;99853.69;;;21.53;100.00
7668;BME280;3876;42.204;24.686;2023-09-07T02:48:04;99835.03;;;21.34;100.00
7668;BME280;3876;42.204;24.686;2023-09-07T02:51:00;99868.09;;;21.46;100.00
7668;BME280;3876;42.204;24.686;2023-09-07T02:53:27;99856.94;;;21.44;100.00
7668;BME280;3876;42.204;24.686;2023-09-07T02:55:53;99861.44;;;21.42;100.00
7668;BME280;3876;42.204;24.686;2023-09-07T02:58:20;99859.00;;;21.39;100.00
7668;BME280;3876;42.204;24.686;2023-09-07T03:00:47;99861.63;;;21.39;100.00
7668;BME280;3876;42.204;24.686;2023-09-07T03:03:15;99862.56;;;21.38;100.00
7668;BME280;3876;42.204;24.686;2023-09-07T03:05:43;99858.91;;;21.28;100.00
7668;BME280;3876;42.204;24.686;2023-09-07T03:08:12;99859.59;;;21.17;100.00
7668;BME280;3876;42.204;24.686;2023-09-07T03:10:39;99863.25;;;21.15;100.00
7668;BME280;3876;42.204;24.686;2023-09-07T03:13:06;99857.13;;;21.16;100.00
7668;BME280;3876;42.204;24.686;2023-09-07T03:15:33;99849.34;;;21.02;100.00
7668;BME280;3876;42.204;24.686;2023-09-07T03:18:00;99869.66;;;20.97;100.00
7668;BME280;3876;42.204;24.686;2023-09-07T03:20:28;99864.22;;;20.87;100.00
7668;BME280;3876;42.204;24.686;2023-09-07T03:22:55;99871.97;;;20.74;100.00
7668;BME280;3876;42.204;24.686;2023-09-07T03:25:22;99857.03;;;20.64;100.00
7668;BME280;3876;42.204;24.686;2023-09-07T03:27:49;99864.34;;;20.71;100.00
7668;BME280;3876;42.204;24.686;2023-09-07T03:30:16;99869.31;;;20.62;100.00
7668;BME280;3876;42.204;24.686;2023-09-07T03:32:43;99877.00;;;20.51;100.00
7668;BME280;3876;42.204;24.686;2023-09-07T03:35:10;99871.88;;;20.49;100.00
7668;BME280;3876;42.204;24.686;2023-09-07T03:37:38;99877.81;;;20.51;100.00
7668;BME280;3876;42.204;24.686;2023-09-07T03:40:05;99875.56;;;20.59;100.00
7668;BME280;3876;42.204;24.686;2023-09-07T03:42:34;99881.59;;;20.60;100.00
7668;BME280;3876;42.204;24.686;2023-09-07T03:45:01;99885.78;;;20.62;100.00
7668;BME280;3876;42.204;24.686;2023-09-07T03:47:28;99888.94;;;20.67;100.00
7668;BME280;3876;42.204;24.686;2023-09-07T03:49:55;99878.31;;;20.70;100.00
7668;BME280;3876;42.204;24.686;2023-09-07T03:52:22;99891.03;;;20.75;100.00
7668;BME280;3876;42.204;24.686;2023-09-07T03:54:51;99884.81;;;20.77;100.00
7668;BME280;3876;42.204;24.686;2023-09-07T03:57:18;99893.38;;;20.79;100.00
7668;BME280;3876;42.204;24.686;2023-09-07T03:59:45;99882.31;;;20.76;100.00
7668;BME280;3876;42.204;24.686;2023-09-07T04:02:12;99898.78;;;20.76;100.00
7668;BME280;3876;42.204;24.686;2023-09-07T04:04:38;99890.59;;;20.68;100.00
7668;BME280;3876;42.204;24.686;2023-09-07T04:07:05;99889.69;;;20.69;100.00
7668;BME280;3876;42.204;24.686;2023-09-07T04:09:32;99896.56;;;20.70;100.00
7668;BME280;3876;42.204;24.686;2023-09-07T04:12:00;99886.88;;;20.72;100.00
7668;BME280;3876;42.204;24.686;2023-09-07T04:14:29;99893.75;;;20.73;100.00
7668;BME280;3876;42.204;24.686;2023-09-07T04:16:55;99892.72;;;20.76;100.00
7668;BME280;3876;42.204;24.686;2023-09-07T04:19:22;99902.31;;;20.75;100.00
7668;BME280;3876;42.204;24.686;2023-09-07T04:21:49;99898.78;;;20.76;100.00
7668;BME280;3876;42.204;24.686;2023-09-07T04:24:16;99901.91;;;20.81;100.00
7668;BME280;3876;42.204;24.686;2023-09-07T04:26:47;99904.31;;;20.84;100.00
7668;BME280;3876;42.204;24.686;2023-09-07T04:29:15;99911.94;;;20.87;100.00
7668;BME280;3876;42.204;24.686;2023-09-07T04:31:42;99899.47;;;20.92;100.00
7668;BME280;3876;42.204;24.686;2023-09-07T04:34:09;99907.72;;;20.99;100.00
7668;BME280;3876;42.204;24.686;2023-09-07T04:36:36;99893.56;;;21.03;100.00
7668;BME280;3876;42.204;24.686;2023-09-07T04:39:02;99904.97;;;21.15;100.00
7668;BME280;3876;42.204;24.686;2023-09-07T04:41:30;99901.69;;;21.25;100.00
7668;BME280;3876;42.204;24.686;2023-09-07T04:43:56;99908.03;;;21.34;100.00
7668;BME280;3876;42.204;24.686;2023-09-07T04:46:25;99900.44;;;21.43;100.00
7668;BME280;3876;42.204;24.686;2023-09-07T04:48:51;99905.03;;;21.53;100.00
7668;BME280;3876;42.204;24.686;2023-09-07T04:51:18;99908.63;;;21.64;100.00
7668;BME280;3876;42.204;24.686;2023-09-07T04:53:46;99910.28;;;21.78;100.00
7668;BME280;3876;42.204;24.686;2023-09-07T04:56:13;99915.34;;;21.93;100.00
7668;BME280;3876;42.204;24.686;2023-09-07T04:58:41;99916.16;;;22.07;100.00
7668;BME280;3876;42.204;24.686;2023-09-07T05:01:09;99918.63;;;22.21;100.00
7668;BME280;3876;42.204;24.686;2023-09-07T05:03:38;99919.44;;;22.34;100.00
7668;BME280;3876;42.204;24.686;2023-09-07T05:06:05;99915.03;;;22.47;100.00
7668;BME280;3876;42.204;24.686;2023-09-07T05:08:32;99923.44;;;22.63;100.00
7668;BME280;3876;42.204;24.686;2023-09-07T05:11:01;99923.34;;;22.77;100.00
7668;BME280;3876;42.204;24.686;2023-09-07T05:13:29;99921.34;;;22.81;100.00
7668;BME280;3876;42.204;24.686;2023-09-07T05:15:57;99925.28;;;22.86;100.00
7668;BME280;3876;42.204;24.686;2023-09-07T05:18:24;99937.41;;;22.87;100.00
7668;BME280;3876;42.204;24.686;2023-09-07T05:20:52;99927.91;;;22.86;100.00
7668;BME280;3876;42.204;24.686;2023-09-07T05:23:20;99924.34;;;22.87;100.00
7668;BME280;3876;42.204;24.686;2023-09-07T05:25:48;99926.00;;;22.88;100.00
7668;BME280;3876;42.204;24.686;2023-09-07T05:28:16;99919.69;;;22.91;100.00
7668;BME280;3876;42.204;24.686;2023-09-07T05:30:43;99915.53;;;22.88;100.00
7668;BME280;3876;42.204;24.686;2023-09-07T05:33:12;99920.94;;;22.98;100.00
7668;BME280;3876;42.204;24.686;2023-09-07T05:35:39;99923.00;;;23.06;100.00
7668;BME280;3876;42.204;24.686;2023-09-07T05:38:08;99928.63;;;23.12;100.00
7668;BME280;3876;42.204;24.686;2023-09-07T05:40:36;99933.50;;;23.17;100.00
7668;BME280;3876;42.204;24.686;2023-09-07T05:43:03;99928.16;;;23.18;100.00
7668;BME280;3876;42.204;24.686;2023-09-07T05:45:30;99924.47;;;23.21;100.00
7668;BME280;3876;42.204;24.686;2023-09-07T05:47:57;99926.16;;;23.33;100.00
7668;BME280;3876;42.204;24.686;2023-09-07T05:50:24;99928.19;;;23.53;100.00
7668;BME280;3876;42.204;24.686;2023-09-07T05:52:50;99925.00;;;23.72;100.00
7668;BME280;3876;42.204;24.686;2023-09-07T05:55:19;99930.88;;;23.86;100.00
7668;BME280;3876;42.204;24.686;2023-09-07T05:57:45;99937.53;;;24.01;100.00
7668;BME280;3876;42.204;24.686;2023-09-07T06:00:13;99932.81;;;24.18;100.00
7668;BME280;3876;42.204;24.686;2023-09-07T06:02:41;99926.50;;;24.31;100.00
7668;BME280;3876;42.204;24.686;2023-09-07T06:05:08;99933.88;;;24.48;100.00
7668;BME280;3876;42.204;24.686;2023-09-07T06:07:35;99927.06;;;24.57;100.00
7668;BME280;3876;42.204;24.686;2023-09-07T06:10:02;99923.50;;;24.58;100.00
7668;BME280;3876;42.204;24.686;2023-09-07T06:12:32;99928.94;;;24.77;100.00
7668;BME280;3876;42.204;24.686;2023-09-07T06:14:59;99923.66;;;24.99;100.00
7668;BME280;3876;42.204;24.686;2023-09-07T06:17:26;99929.31;;;25.16;100.00
7668;BME280;3876;42.204;24.686;2023-09-07T06:19:54;99925.88;;;25.36;100.00
7668;BME280;3876;42.204;24.686;2023-09-07T06:22:21;99940.97;;;25.43;100.00
7668;BME280;3876;42.204;24.686;2023-09-07T06:24:49;99941.38;;;25.39;100.00
7668;BME280;3876;42.204;24.686;2023-09-07T06:27:15;99942.22;;;25.39;100.00
7668;BME280;3876;42.204;24.686;2023-09-07T06:29:44;99941.06;;;25.32;100.00
7668;BME280;3876;42.204;24.686;2023-09-07T06:32:10;99946.94;;;25.45;100.00
7668;BME280;3876;42.204;24.686;2023-09-07T06:34:39;99948.22;;;25.62;100.00
7668;BME280;3876;42.204;24.686;2023-09-07T06:37:06;99938.31;;;25.75;100.00
7668;BME280;3876;42.204;24.686;2023-09-07T06:39:33;99943.44;;;25.97;100.00
7668;BME280;3876;42.204;24.686;2023-09-07T06:42:00;99950.78;;;26.03;100.00
7668;BME280;3876;42.204;24.686;2023-09-07T06:44:27;99944.47;;;26.16;100.00
7668;BME280;3876;42.204;24.686;2023-09-07T06:46:55;99929.16;;;26.21;100.00
7668;BME280;3876;42.204;24.686;2023-09-07T06:49:22;99940.31;;;26.43;100.00
7668;BME280;3876;42.204;24.686;2023-09-07T06:51:49;99942.88;;;26.64;100.00
7668;BME280;3876;42.204;24.686;2023-09-07T06:54:16;99953.28;;;26.75;100.00
7668;BME280;3876;42.204;24.686;2023-09-07T06:56:43;99951.00;;;26.91;100.00
7668;BME280;3876;42.204;24.686;2023-09-07T06:59:09;99953.78;;;26.99;98.77
7668;BME280;3876;42.204;24.686;2023-09-07T07:01:36;99945.47;;;27.13;98.70
7668;BME280;3876;42.204;24.686;2023-09-07T07:04:05;99949.91;;;27.23;97.52
7668;BME280;3876;42.204;24.686;2023-09-07T07:06:33;99944.63;;;27.23;94.72
7668;BME280;3876;42.204;24.686;2023-09-07T07:09:01;99942.41;;;27.28;93.04
7668;BME280;3876;42.204;24.686;2023-09-07T07:11:27;99941.03;;;27.33;96.63
7668;BME280;3876;42.204;24.686;2023-09-07T07:13:54;99951.44;;;27.44;91.73
7668;BME280;3876;42.204;24.686;2023-09-07T07:16:21;99952.97;;;27.47;91.96
7668;BME280;3876;42.204;24.686;2023-09-07T07:18:48;99948.50;;;27.57;93.78
7668;BME280;3876;42.204;24.686;2023-09-07T07:21:16;99942.09;;;27.69;92.95
7668;BME280;3876;42.204;24.686;2023-09-07T07:23:42;99939.47;;;27.69;92.02
7668;BME280;3876;42.204;24.686;2023-09-07T07:26:09;99940.59;;;27.57;90.63
7668;BME280;3876;42.204;24.686;2023-09-07T07:28:36;99948.09;;;27.61;90.09
7668;BME280;3876;42.204;24.686;2023-09-07T07:31:07;99944.31;;;27.83;90.52
7668;BME280;3876;42.204;24.686;2023-09-07T07:33:35;99957.59;;;28.01;86.72
7668;BME280;3876;42.204;24.686;2023-09-07T07:36:02;99959.50;;;28.08;84.44
7668;BME280;3876;42.204;24.686;2023-09-07T07:38:31;99952.06;;;27.94;84.00
7668;BME280;3876;42.204;24.686;2023-09-07T07:40:57;99959.50;;;28.08;84.17
7668;BME280;3876;42.204;24.686;2023-09-07T07:43:24;99964.22;;;28.05;84.27
7668;BME280;3876;42.204;24.686;2023-09-07T07:45:51;99965.19;;;28.13;85.98
7668;BME280;3876;42.204;24.686;2023-09-07T07:48:18;99963.13;;;28.17;82.02
7668;BME280;3876;42.204;24.686;2023-09-07T07:50:45;99964.78;;;28.08;85.74
7668;BME280;3876;42.204;24.686;2023-09-07T07:53:12;99954.78;;;28.02;89.10
7668;BME280;3876;42.204;24.686;2023-09-07T07:55:41;99966.75;;;28.06;84.93
7668;BME280;3876;42.204;24.686;2023-09-07T07:58:09;99964.78;;;27.99;83.71
7668;BME280;3876;42.204;24.686;2023-09-07T08:00:36;99962.75;;;27.83;85.16
7668;BME280;3876;42.204;24.686;2023-09-07T08:03:04;99959.53;;;27.89;87.54
7668;BME280;3876;42.204;24.686;2023-09-07T08:05:32;99968.44;;;27.88;83.00
7668;BME280;3876;42.204;24.686;2023-09-07T08:08:00;99962.03;;;28.00;84.74
7668;BME280;3876;42.204;24.686;2023-09-07T08:10:26;99964.94;;;27.97;85.51
7668;BME280;3876;42.204;24.686;2023-09-07T08:12:55;99966.53;;;27.71;83.99
7668;BME280;3876;42.204;24.686;2023-09-07T08:15:22;99952.16;;;27.56;85.00
7668;BME280;3876;42.204;24.686;2023-09-07T08:17:50;99959.47;;;27.62;86.68
7668;BME280;3876;42.204;24.686;2023-09-07T08:20:17;99954.34;;;27.60;82.97
7668;BME280;3876;42.204;24.686;2023-09-07T08:22:44;99959.34;;;27.54;80.78
7668;BME280;3876;42.204;24.686;2023-09-07T08:25:11;99950.75;;;27.61;82.85
7668;BME280;3876;42.204;24.686;2023-09-07T08:27:38;99958.75;;;27.41;83.37
7668;BME280;3876;42.204;24.686;2023-09-07T08:30:11;99964.03;;;27.41;84.22
7668;BME280;3876;42.204;24.686;2023-09-07T08:32:38;99954.34;;;27.32;84.93
7668;BME280;3876;42.204;24.686;2023-09-07T08:35:05;99947.94;;;27.25;83.42
7668;BME280;3876;42.204;24.686;2023-09-07T08:37:34;99946.31;;;27.24;83.01
7668;BME280;3876;42.204;24.686;2023-09-07T08:40:01;99947.38;;;26.92;85.49
7668;BME280;3876;42.204;24.686;2023-09-07T08:42:30;99954.72;;;26.98;83.18
7668;BME280;3876;42.204;24.686;2023-09-07T08:44:57;99950.28;;;26.89;86.54
7668;BME280;3876;42.204;24.686;2023-09-07T08:47:33;99948.22;;;26.83;85.38
7668;BME280;3876;42.204;24.686;2023-09-07T08:50:01;99943.63;;;26.85;85.12
7668;BME280;3876;42.204;24.686;2023-09-07T08:52:28;99949.34;;;26.90;86.27
7668;BME280;3876;42.204;24.686;2023-09-07T08:54:56;99946.69;;;26.90;85.67
7668;BME280;3876;42.204;24.686;2023-09-07T08:57:24;99942.25;;;26.81;85.38
7668;BME280;3876;42.204;24.686;2023-09-07T08:59:51;99938.44;;;26.65;84.70
7668;BME280;3876;42.204;24.686;2023-09-07T09:02:18;99935.41;;;26.69;85.69
7668;BME280;3876;42.204;24.686;2023-09-07T09:04:47;99939.63;;;26.81;84.00
7668;BME280;3876;42.204;24.686;2023-09-07T09:07:14;99942.66;;;26.86;83.19
7668;BME280;3876;42.204;24.686;2023-09-07T09:09:41;99931.03;;;26.89;83.92
7668;BME280;3876;42.204;24.686;2023-09-07T09:12:08;99938.66;;;27.11;83.70
7668;BME280;3876;42.204;24.686;2023-09-07T09:14:35;99928.56;;;27.26;79.04
7668;BME280;3876;42.204;24.686;2023-09-07T09:17:02;99931.06;;;27.56;79.42
7668;BME280;3876;42.204;24.686;2023-09-07T09:19:32;99927.69;;;27.73;79.15
7668;BME280;3876;42.204;24.686;2023-09-07T09:22:00;99927.94;;;27.80;78.49
7668;BME280;3876;42.204;24.686;2023-09-07T09:24:32;99931.53;;;27.88;76.81
7668;BME280;3876;42.204;24.686;2023-09-07T09:26:58;99927.75;;;28.00;76.75
7668;BME280;3876;42.204;24.686;2023-09-07T09:29:25;99928.16;;;28.05;77.59
7668;BME280;3876;42.204;24.686;2023-09-07T09:31:52;99932.75;;;28.03;76.25
7668;BME280;3876;42.204;24.686;2023-09-07T09:34:20;99929.56;;;28.09;78.38
7668;BME280;3876;42.204;24.686;2023-09-07T09:36:47;99923.41;;;28.19;75.91
7668;BME280;3876;42.204;24.686;2023-09-07T09:39:23;99923.94;;;28.22;77.17
7668;BME280;3876;42.204;24.686;2023-09-07T09:41:50;99915.78;;;28.15;76.08
7668;BME280;3876;42.204;24.686;2023-09-07T09:44:17;99917.66;;;27.86;76.50
7668;BME280;3876;42.204;24.686;2023-09-07T09:46:47;99907.31;;;27.75;77.37
7668;BME280;3876;42.204;24.686;2023-09-07T09:49:15;99900.75;;;27.79;78.67
7668;BME280;3876;42.204;24.686;2023-09-07T09:51:45;99915.03;;;27.86;76.36
7668;BME280;3876;42.204;24.686;2023-09-07T09:54:12;99919.59;;;27.94;76.59
7668;BME280;3876;42.204;24.686;2023-09-07T09:56:41;99903.06;;;27.92;78.78
7668;BME280;3876;42.204;24.686;2023-09-07T09:59:08;99903.31;;;27.98;78.15
7668;BME280;3876;42.204;24.686;2023-09-07T10:01:43;99902.59;;;28.15;77.13
7668;BME280;3876;42.204;24.686;2023-09-07T10:04:12;99893.19;;;28.03;75.62
7668;BME280;3876;42.204;24.686;2023-09-07T10:06:50;99903.47;;;28.06;74.98
7668;BME280;3876;42.204;24.686;2023-09-07T10:09:18;99894.50;;;27.90;73.90
7668;BME280;3876;42.204;24.686;2023-09-07T10:11:52;99899.38;;;27.85;74.08
7668;BME280;3876;42.204;24.686;2023-09-07T10:14:20;99889.16;;;27.72;75.94
7668;BME280;3876;42.204;24.686;2023-09-07T10:17:01;99891.13;;;27.60;74.63
7668;BME280;3876;42.204;24.686;2023-09-07T10:22:31;99886.09;;;27.67;74.90
7668;BME280;3876;42.204;24.686;2023-09-07T10:25:17;99883.59;;;27.75;74.94
7668;BME280;3876;42.204;24.686;2023-09-07T10:27:51;99886.91;;;27.77;76.00
7668;BME280;3876;42.204;24.686;2023-09-07T10:30:19;99880.97;;;27.75;73.30
7668;BME280;3876;42.204;24.686;2023-09-07T10:32:49;99887.19;;;27.74;70.71
7668;BME280;3876;42.204;24.686;2023-09-07T10:35:18;99881.59;;;27.87;71.66
7668;BME280;3876;42.204;24.686;2023-09-07T10:37:47;99877.13;;;28.06;71.66
7668;BME280;3876;42.204;24.686;2023-09-07T10:40:19;99880.53;;;28.17;66.99
7668;BME280;3876;42.204;24.686;2023-09-07T10:42:48;99873.53;;;28.25;68.80
7668;BME280;3876;42.204;24.686;2023-09-07T10:45:15;99880.63;;;28.25;68.68
7668;BME280;3876;42.204;24.686;2023-09-07T10:47:43;99876.13;;;28.35;66.32
7668;BME280;3876;42.204;24.686;2023-09-07T10:50:12;99878.63;;;28.36;62.82
7668;BME280;3876;42.204;24.686;2023-09-07T10:52:39;99879.16;;;28.40;66.12
7668;BME280;3876;42.204;24.686;2023-09-07T10:55:07;99871.81;;;28.34;65.29
7668;BME280;3876;42.204;24.686;2023-09-07T10:57:45;99868.03;;;28.46;65.72
7668;BME280;3876;42.204;24.686;2023-09-07T11:00:15;99876.31;;;28.51;65.50
7668;BME280;3876;42.204;24.686;2023-09-07T11:02:42;99869.97;;;28.44;66.51
7668;BME280;3876;42.204;24.686;2023-09-07T11:05:09;99876.53;;;28.40;65.25
7668;BME280;3876;42.204;24.686;2023-09-07T11:07:37;99873.31;;;28.46;65.51
7668;BME280;3876;42.204;24.686;2023-09-07T11:10:06;99881.59;;;28.51;64.50
7668;BME280;3876;42.204;24.686;2023-09-07T11:12:37;99864.84;;;28.60;63.42
7668;BME280;3876;42.204;24.686;2023-09-07T11:15:05;99857.91;;;28.69;66.76
7668;BME280;3876;42.204;24.686;2023-09-07T11:17:38;99862.41;;;28.76;65.85
7668;BME280;3876;42.204;24.686;2023-09-07T11:20:06;99853.97;;;28.73;65.17
7668;BME280;3876;42.204;24.686;2023-09-07T11:22:36;99846.44;;;28.78;67.01
7668;BME280;3876;42.204;24.686;2023-09-07T11:25:04;99849.22;;;28.76;66.68
7668;BME280;3876;42.204;24.686;2023-09-07T11:27:31;99842.97;;;28.95;67.19
7668;BME280;3876;42.204;24.686;2023-09-07T11:29:58;99836.75;;;29.04;65.38
7668;BME280;3876;42.204;24.686;2023-09-07T11:32:34;99833.94;;;29.05;63.87
7668;BME280;3876;42.204;24.686;2023-09-07T11:35:03;99827.03;;;29.04;64.31
7668;BME280;3876;42.204;24.686;2023-09-07T11:37:33;99824.75;;;29.09;67.38
7668;BME280;3876;42.204;24.686;2023-09-07T11:40:00;99822.47;;;29.14;64.38
7668;BME280;3876;42.204;24.686;2023-09-07T11:42:29;99813.78;;;29.22;65.34
7668;BME280;3876;42.204;24.686;2023-09-07T11:44:56;99817.56;;;29.19;64.42
7668;BME280;3876;42.204;24.686;2023-09-07T11:47:23;99812.13;;;29.21;62.97
7668;BME280;3876;42.204;24.686;2023-09-07T11:49:50;99812.81;;;29.05;62.52
7668;BME280;3876;42.204;24.686;2023-09-07T11:52:19;99803.19;;;28.96;63.76
7668;BME280;3876;42.204;24.686;2023-09-07T11:54:46;99803.81;;;28.90;62.82
7668;BME280;3876;42.204;24.686;2023-09-07T11:57:13;99789.94;;;28.88;66.07
7668;BME280;3876;42.204;24.686;2023-09-07T11:59:41;99795.53;;;28.85;64.04
7668;BME280;3876;42.204;24.686;2023-09-07T12:02:08;99793.88;;;28.84;61.89
7668;BME280;3876;42.204;24.686;2023-09-07T12:04:36;99796.72;;;28.73;63.09
7668;BME280;3876;42.204;24.686;2023-09-07T12:07:03;99792.28;;;28.74;63.87
7668;BME280;3876;42.204;24.686;2023-09-07T12:09:32;99793.13;;;28.74;63.36
7668;BME280;3876;42.204;24.686;2023-09-07T12:11:58;99790.25;;;28.85;63.04
7668;BME280;3876;42.204;24.686;2023-09-07T12:14:25;99776.81;;;28.96;63.92
7668;BME280;3876;42.204;24.686;2023-09-07T12:16:52;99770.06;;;29.02;62.85
7668;BME280;3876;42.204;24.686;2023-09-07T12:19:18;99776.91;;;29.12;65.10
7668;BME280;3876;42.204;24.686;2023-09-07T12:21:45;99780.38;;;29.13;63.71
7668;BME280;3876;42.204;24.686;2023-09-07T12:24:12;99774.13;;;29.14;64.28
7668;BME280;3876;42.204;24.686;2023-09-07T12:26:40;99768.38;;;29.18;62.71
7668;BME280;3876;42.204;24.686;2023-09-07T12:29:07;99772.34;;;29.23;62.32
7668;BME280;3876;42.204;24.686;2023-09-07T12:31:34;99777.28;;;29.17;60.82
7668;BME280;3876;42.204;24.686;2023-09-07T12:34:01;99768.84;;;29.14;62.04
7668;BME280;3876;42.204;24.686;2023-09-07T12:36:27;99769.97;;;29.11;65.15
7668;BME280;3876;42.204;24.686;2023-09-07T12:38:55;99766.03;;;29.15;61.78
7668;BME280;3876;42.204;24.686;2023-09-07T12:41:26;99768.59;;;29.25;61.11
7668;BME280;3876;42.204;24.686;2023-09-07T12:44:19;99766.53;;;29.37;61.83
7668;BME280;3876;42.204;24.686;2023-09-07T12:46:49;99760.75;;;29.41;61.58
7668;BME280;3876;42.204;24.686;2023-09-07T12:49:17;99760.97;;;29.48;64.18
7668;BME280;3876;42.204;24.686;2023-09-07T12:51:45;99755.03;;;29.46;61.21
7668;BME280;3876;42.204;24.686;2023-09-07T12:54:12;99765.16;;;29.58;60.98
7668;BME280;3876;42.204;24.686;2023-09-07T12:56:38;99768.66;;;29.67;62.17
7668;BME280;3876;42.204;24.686;2023-09-07T12:59:05;99754.25;;;29.61;62.81
7668;BME280;3876;42.204;24.686;2023-09-07T13:01:55;99769.28;;;29.61;63.43
7668;BME280;3876;42.204;24.686;2023-09-07T13:04:31;99767.47;;;29.61;62.54
7668;BME280;3876;42.204;24.686;2023-09-07T13:06:57;99766.44;;;29.54;62.32
7668;BME280;3876;42.204;24.686;2023-09-07T13:09:26;99770.56;;;29.57;62.47
7668;BME280;3876;42.204;24.686;2023-09-07T13:11:53;99768.63;;;29.59;61.62